Time;durP1;ratioP1;P1;durP2;ratioP2;P2;SDS_P1;SDS_P2;PMS_P1;PMS_P2;Temp;Humidity;BMP_temperature;BMP_pressure;BME280_temperature;BME280_humidity;BME280_pressure;Samples;Min_cycle;Max_cycle;Signal;HPM_P1;HPM_P2
2022/05/27 00:01:32;;;;;;;;;1.67;1.67;;;;;17.25;59.59;102065.13;5099772;27;45295;-71
2022/05/27 00:04:00;;;;;;;;;1.00;0.00;;;;;17.24;59.67;102057.25;5098578;27;45377;-71
2022/05/27 00:06:27;;;;;;;;;0.33;0.33;;;;;17.18;59.66;102063.38;5078437;28;45445;-71
2022/05/27 00:08:53;;;;;;;;;0.00;0.00;;;;;17.09;59.30;102043.84;5079013;28;45272;-72
2022/05/27 00:11:19;;;;;;;;;0.33;0.33;;;;;17.14;60.04;102052.16;5079405;28;45351;-71
2022/05/27 00:13:45;;;;;;;;;3.00;1.00;;;;;17.12;59.91;102046.16;5079484;27;45370;-71
2022/05/27 00:16:11;;;;;;;;;1.33;1.33;;;;;17.10;59.84;102046.34;5077697;28;45279;-70
2022/05/27 00:18:36;;;;;;;;;1.00;1.00;;;;;17.07;59.77;102045.88;5077967;28;45258;-71
2022/05/27 00:21:03;;;;;;;;;0.00;0.00;;;;;17.12;59.26;102046.16;5079393;28;45686;-72
2022/05/27 00:23:29;;;;;;;;;1.67;1.67;;;;;17.12;59.58;102048.84;5079199;27;45362;-71
2022/05/27 00:25:54;;;;;;;;;0.33;0.33;;;;;17.10;59.30;102056.22;5079244;27;45349;-72
2022/05/27 00:28:19;;;;;;;;;0.00;0.00;;;;;16.95;59.27;102034.72;5079306;28;45342;-71
2022/05/27 00:30:45;;;;;;;;;1.00;1.00;;;;;17.02;59.63;102049.91;5077802;28;47065;-71
2022/05/27 00:33:11;;;;;;;;;0.67;0.67;;;;;16.99;59.87;102042.22;5079289;27;45888;-71
2022/05/27 00:35:36;;;;;;;;;2.00;0.67;;;;;16.99;59.65;102039.53;5079345;27;45407;-71
2022/05/27 00:38:02;;;;;;;;;1.00;1.00;;;;;16.94;60.01;102031.19;5078636;28;45197;-71
2022/05/27 00:40:36;;;;;;;;;1.00;1.00;;;;;16.97;60.38;102032.69;5111742;27;46991;-71
2022/05/27 00:43:02;;;;;;;;;2.00;2.00;;;;;16.96;60.02;102039.91;5079078;27;45423;-71
2022/05/27 00:45:28;;;;;;;;;1.33;1.33;;;;;16.96;60.59;102029.16;5079288;28;45197;-71
2022/05/27 00:47:57;;;;;;;;;1.00;1.00;;;;;16.94;60.19;102039.25;5079066;27;45397;-71
2022/05/27 00:50:27;;;;;;;;;2.00;2.00;;;;;16.93;60.83;102026.84;5078949;27;45996;-71
2022/05/27 00:52:53;;;;;;;;;0.67;0.33;;;;;17.01;61.06;102033.97;5078519;28;45285;-71
2022/05/27 00:55:22;;;;;;;;;2.00;2.00;;;;;17.01;60.38;102025.94;5079351;28;45568;-71
2022/05/27 00:57:53;;;;;;;;;1.00;1.00;;;;;16.97;61.08;102024.63;5078846;27;45440;-71
2022/05/27 01:00:24;;;;;;;;;4.00;2.67;;;;;16.95;61.05;102034.72;5079130;28;46379;-71
2022/05/27 01:02:50;;;;;;;;;3.00;3.00;;;;;16.95;61.03;102035.56;5079023;27;45363;-72
2022/05/27 01:05:19;;;;;;;;;1.00;1.00;;;;;16.93;60.88;102024.16;5091818;27;45296;-71
2022/05/27 01:07:44;;;;;;;;;4.00;2.00;;;;;16.87;61.33;102020.38;5099293;27;45416;-71
2022/05/27 01:10:14;;;;;;;;;4.00;4.00;;;;;16.90;61.18;102030.75;5099616;27;45150;-71
2022/05/27 01:13:01;;;;;;;;;2.00;1.67;;;;;16.89;61.11;102028.25;5102745;27;45335;-71
2022/05/27 01:16:16;;;;;;;;;1.67;1.67;;;;;16.78;61.35;102016.09;5102956;27;45459;-71
2022/05/27 01:22:08;;;;;;;;;2.67;2.67;;;;;16.79;62.01;102023.97;5102593;27;45289;-71
2022/05/27 01:25:11;;;;;;;;;3.00;3.00;;;;;16.78;61.85;102025.00;5102781;27;45238;-71
2022/05/27 01:27:48;;;;;;;;;2.33;2.33;;;;;16.75;61.99;102027.22;5073021;28;45280;-71
2022/05/27 01:30:20;;;;;;;;;2.00;2.00;;;;;16.71;62.31;102024.09;5080489;28;47324;-71
2022/05/27 01:33:24;;;;;;;;;3.00;2.67;;;;;16.70;62.40;102024.25;5082001;27;45335;-71
2022/05/27 01:36:04;;;;;;;;;2.00;1.67;;;;;16.70;62.60;102025.06;5081143;27;45358;-71
2022/05/27 01:39:02;;;;;;;;;1.00;1.00;;;;;16.69;62.22;102018.06;5081955;28;45296;-71
2022/05/27 01:41:57;;;;;;;;;2.00;2.00;;;;;16.66;62.29;102008.53;5081553;27;45329;-71
2022/05/27 01:44:48;;;;;;;;;2.00;2.00;;;;;16.62;62.46;102012.59;5081927;28;46067;-71
2022/05/27 01:47:21;;;;;;;;;2.67;2.67;;;;;16.53;62.56;102000.28;5081827;27;45265;-71
2022/05/27 01:50:01;;;;;;;;;2.00;2.00;;;;;16.50;63.23;101997.97;5081932;27;45373;-71
2022/05/27 01:52:50;;;;;;;;;2.33;1.00;;;;;16.41;62.95;101989.97;5081596;27;45283;-71
2022/05/27 01:55:27;;;;;;;;;2.00;2.00;;;;;16.50;62.89;102011.38;5080019;28;48507;-71
2022/05/27 01:58:23;;;;;;;;;3.00;1.67;;;;;16.45;62.89;101997.66;5081275;27;45280;-71
2022/05/27 02:00:49;;;;;;;;;3.67;2.67;;;;;16.48;62.89;102008.88;5079526;28;45547;-71
2022/05/27 02:03:26;;;;;;;;;2.33;2.33;;;;;16.45;63.05;102013.75;5081624;28;45278;-71
2022/05/27 02:06:07;;;;;;;;;1.67;1.00;;;;;16.41;63.28;102007.94;5099286;27;45517;-71
2022/05/27 02:08:53;;;;;;;;;3.00;3.00;;;;;16.37;63.34;102004.78;5101616;27;45392;-71
2022/05/27 02:11:21;;;;;;;;;3.00;3.00;;;;;16.36;63.60;102007.63;5102014;27;45297;-71
2022/05/27 02:13:57;;;;;;;;;2.67;2.67;;;;;16.31;63.92;102008.19;5102042;27;45176;-71
2022/05/27 02:16:31;;;;;;;;;4.67;4.33;;;;;16.29;64.01;102012.91;5101863;27;45303;-71
2022/05/27 02:19:02;;;;;;;;;2.00;2.00;;;;;16.27;64.00;102015.78;5101882;27;45421;-71
2022/05/27 02:21:45;;;;;;;;;4.00;4.00;;;;;16.22;63.72;102006.59;5101868;27;45361;-71
2022/05/27 02:24:41;;;;;;;;;5.00;2.00;;;;;16.21;64.68;102012.97;5101076;27;45287;-71
2022/05/27 02:27:12;;;;;;;;;4.00;4.00;;;;;16.14;64.70;102004.81;5101596;27;46390;-71
2022/05/27 02:29:40;;;;;;;;;2.67;2.67;;;;;16.10;64.63;101995.47;5100222;27;45811;-71
2022/05/27 02:32:15;;;;;;;;;2.33;2.33;;;;;16.11;64.74;102007.88;5101886;27;45411;-71
2022/05/27 02:35:10;;;;;;;;;4.67;3.00;;;;;16.08;64.92;102000.19;5101600;27;45382;-71
2022/05/27 02:37:43;;;;;;;;;1.33;1.33;;;;;15.99;64.93;101997.56;5117081;27;47047;-71
2022/05/27 02:40:18;;;;;;;;;2.00;2.00;;;;;16.03;65.42;102001.56;5101407;27;45299;-71
2022/05/27 02:42:43;;;;;;;;;2.00;2.00;;;;;16.04;65.31;102005.06;5101620;27;45377;-71
2022/05/27 02:45:13;;;;;;;;;2.33;2.33;;;;;16.05;65.55;101998.69;5101468;27;45480;-71
2022/05/27 02:48:03;;;;;;;;;4.67;4.00;;;;;16.05;65.48;102004.06;5099949;27;48045;-71
2022/05/27 02:50:54;;;;;;;;;2.00;2.00;;;;;16.06;65.94;102007.56;5101351;27;45352;-71
2022/05/27 02:53:24;;;;;;;;;3.00;3.00;;;;;16.06;65.98;102007.56;5098449;27;45362;-71
2022/05/27 02:56:24;;;;;;;;;3.67;3.00;;;;;16.07;65.79;102009.25;5101182;27;45389;-71
2022/05/27 02:58:49;;;;;;;;;3.33;3.33;;;;;16.06;66.05;102008.41;5100999;27;45275;-71
2022/05/27 03:01:16;;;;;;;;;3.00;3.00;;;;;16.03;65.89;102000.72;5101251;27;45156;-71
2022/05/27 03:03:42;;;;;;;;;2.00;2.00;;;;;16.01;66.22;102006.25;5101379;27;45240;-71
2022/05/27 03:06:26;;;;;;;;;7.00;6.00;;;;;16.02;65.80;102002.53;5080897;27;45688;-71
2022/05/27 03:09:20;;;;;;;;;4.00;4.00;;;;;15.97;66.15;101998.75;5079997;28;46064;-71
2022/05/27 03:11:53;;;;;;;;;5.33;4.00;;;;;15.98;66.75;102009.28;5080616;27;45289;-71
2022/05/27 03:14:27;;;;;;;;;5.67;5.67;;;;;15.89;66.34;102008.50;5080746;28;45379;-71
2022/05/27 03:17:15;;;;;;;;;4.33;4.33;;;;;15.85;66.68;102006.34;5080231;28;45275;-71
2022/05/27 03:19:56;;;;;;;;;2.00;2.00;;;;;15.84;66.53;102007.38;5080184;28;45329;-72
2022/05/27 03:22:42;;;;;;;;;3.00;3.00;;;;;15.85;66.75;101996.47;5080102;27;45312;-72
2022/05/27 03:25:16;;;;;;;;;5.00;4.33;;;;;15.85;66.65;101998.31;5080247;28;45408;-71
2022/05/27 03:27:54;;;;;;;;;5.00;5.00;;;;;15.82;66.26;102009.38;5080015;28;45461;-71
2022/05/27 03:30:21;;;;;;;;;4.33;4.33;;;;;15.77;66.47;102004.53;5078819;28;47192;-71
2022/05/27 03:32:55;;;;;;;;;4.33;4.00;;;;;15.74;66.68;102008.44;5080087;27;45354;-71
2022/05/27 03:35:39;;;;;;;;;6.00;5.00;;;;;15.75;66.16;102007.41;5079255;27;45325;-72
2022/05/27 03:38:13;;;;;;;;;8.33;4.33;;;;;15.74;66.47;102000.38;5079684;28;45474;-71
2022/05/27 03:40:53;;;;;;;;;2.67;2.67;;;;;15.70;66.13;101987.50;5079701;28;45396;-71
2022/05/27 03:43:20;;;;;;;;;8.33;5.00;;;;;15.70;66.94;101993.72;5080126;28;45323;-71
2022/05/27 03:45:57;;;;;;;;;4.33;4.33;;;;;15.74;66.26;101995.03;5080028;27;45562;-71
2022/05/27 03:48:24;;;;;;;;;6.00;6.00;;;;;15.74;66.17;102005.75;5079866;27;45628;-71
2022/05/27 03:50:53;;;;;;;;;9.00;7.33;;;;;15.71;65.69;101995.38;5079681;27;46058;-70
2022/05/27 03:53:19;;;;;;;;;7.33;7.33;;;;;15.74;65.82;102012.94;5079426;28;45420;-71
2022/05/27 03:55:44;;;;;;;;;7.33;6.33;;;;;15.72;65.86;102010.47;5079844;28;45349;-71
2022/05/27 03:58:15;;;;;;;;;7.67;6.67;;;;;15.71;66.20;102016.00;5078280;28;45965;-71
2022/05/27 04:00:42;;;;;;;;;9.00;7.00;;;;;15.71;66.22;102006.09;5079820;28;46263;-71
2022/05/27 04:03:09;;;;;;;;;9.67;8.00;;;;;15.72;66.25;102010.47;5079826;28;45481;-71
2022/05/27 04:05:35;;;;;;;;;7.00;6.67;;;;;15.73;66.60;102008.59;5094991;27;45269;-71
2022/05/27 04:08:01;;;;;;;;;8.33;8.33;;;;;15.73;66.27;102008.59;5098404;27;47288;-71
2022/05/27 04:10:26;;;;;;;;;9.00;9.00;;;;;15.68;66.13;102003.78;5099967;27;46126;-71
2022/05/27 04:12:52;;;;;;;;;7.67;7.00;;;;;15.68;66.46;102009.13;5100297;27;45308;-71
2022/05/27 04:15:18;;;;;;;;;9.00;9.00;;;;;15.73;66.62;102014.81;5100315;27;45426;-71
2022/05/27 04:17:43;;;;;;;;;9.00;8.67;;;;;15.72;66.87;102012.31;5100060;27;45407;-71
2022/05/27 04:20:15;;;;;;;;;8.00;8.00;;;;;15.67;66.86;102012.00;5099962;27;46029;-71
2022/05/27 04:22:41;;;;;;;;;11.67;11.67;;;;;15.68;66.71;102027.88;5099780;27;45495;-71
2022/05/27 04:25:08;;;;;;;;;12.00;11.00;;;;;15.57;66.92;102006.88;5133335;27;45343;-71
2022/05/27 04:27:34;;;;;;;;;15.67;15.00;;;;;15.65;66.79;102022.88;5098055;27;46865;-71
2022/05/27 04:30:00;;;;;;;;;14.67;14.67;;;;;15.68;66.56;102017.16;5099788;27;45482;-71
2022/05/27 04:32:25;;;;;;;;;14.00;14.00;;;;;15.68;66.84;102027.88;5100006;27;45369;-71
2022/05/27 04:34:52;;;;;;;;;15.67;13.00;;;;;15.70;66.98;102025.88;5098643;27;45479;-71
2022/05/27 04:37:17;;;;;;;;;15.67;15.67;;;;;15.71;66.79;102016.81;5099740;27;45409;-71
2022/05/27 04:39:43;;;;;;;;;15.67;13.33;;;;;15.69;66.53;102016.19;5099362;27;47075;-71
2022/05/27 04:42:09;;;;;;;;;15.67;15.67;;;;;15.72;66.65;102018.50;5099751;27;45388;-71
2022/05/27 04:44:35;;;;;;;;;18.00;16.33;;;;;15.72;66.65;102021.19;5099882;27;45316;-71
2022/05/27 04:47:00;;;;;;;;;12.00;12.00;;;;;15.72;66.55;102012.31;5102319;27;45373;-71
2022/05/27 04:52:10;;;;;;;;;16.00;15.00;;;;;15.73;66.84;102009.44;5103097;27;45478;-71
2022/05/27 04:54:35;;;;;;;;;14.00;11.33;;;;;15.85;66.99;102022.44;5103122;27;45261;-71
2022/05/27 04:57:01;;;;;;;;;13.00;13.00;;;;;15.87;66.48;102025.78;5084942;27;45504;-72
2022/05/27 04:59:27;;;;;;;;;15.00;14.00;;;;;15.84;66.64;102015.41;5081430;28;46991;-71
2022/05/27 05:01:52;;;;;;;;;12.33;12.00;;;;;15.88;66.47;102016.72;5082692;27;45168;-71
2022/05/27 05:04:18;;;;;;;;;8.33;8.00;;;;;15.92;66.84;102017.19;5085804;27;45205;-71
2022/05/27 05:06:44;;;;;;;;;11.00;11.00;;;;;15.90;66.24;102018.19;5074885;28;45201;-71
2022/05/27 05:09:10;;;;;;;;;15.00;15.00;;;;;15.88;66.47;102019.38;5082390;27;45498;-71
2022/05/27 05:11:36;;;;;;;;;13.67;10.00;;;;;15.83;67.17;102011.06;5082256;28;45254;-71
2022/05/27 05:14:01;;;;;;;;;10.67;10.67;;;;;15.89;67.15;102023.72;5082711;27;45511;-71
2022/05/27 05:16:27;;;;;;;;;11.33;10.33;;;;;15.89;67.01;102015.69;5082244;27;45304;-71
2022/05/27 05:18:53;;;;;;;;;10.67;9.33;;;;;15.89;67.21;102015.69;5082328;27;45421;-72
2022/05/27 05:21:18;;;;;;;;;8.00;8.00;;;;;15.92;66.90;102017.19;5082447;27;45368;-72
2022/05/27 05:23:44;;;;;;;;;11.67;11.67;;;;;15.90;66.85;102017.38;5081515;27;45401;-71
2022/05/27 05:26:10;;;;;;;;;10.00;10.00;;;;;15.86;67.10;102013.41;5082268;27;45437;-72
2022/05/27 05:28:36;;;;;;;;;11.33;10.33;;;;;15.94;67.09;102024.03;5082090;27;45737;-72
2022/05/27 05:31:01;;;;;;;;;9.33;9.33;;;;;15.85;67.15;102009.03;5082302;27;45326;-71
2022/05/27 05:33:27;;;;;;;;;11.00;10.67;;;;;15.88;66.86;102004.16;5080805;28;45454;-71
2022/05/27 05:35:52;;;;;;;;;11.67;10.67;;;;;15.94;67.15;102016.00;5082269;27;45243;-71
2022/05/27 05:38:19;;;;;;;;;12.00;10.67;;;;;15.94;67.45;102017.84;5081932;27;45284;-70
2022/05/27 05:40:45;;;;;;;;;8.00;8.00;;;;;15.99;66.98;102016.34;5081706;27;45411;-70
2022/05/27 05:43:11;;;;;;;;;7.00;7.00;;;;;16.00;67.79;102018.00;5082219;27;45254;-70
2022/05/27 05:45:36;;;;;;;;;7.33;7.00;;;;;15.94;67.58;102013.31;5080558;28;45915;-71
2022/05/27 05:48:02;;;;;;;;;7.00;7.00;;;;;16.00;67.98;102019.84;5082043;27;45260;-70
2022/05/27 05:50:27;;;;;;;;;7.33;6.67;;;;;15.96;67.94;102019.38;5082111;27;45291;-71
2022/05/27 05:52:53;;;;;;;;;6.00;5.00;;;;;16.02;68.07;102029.38;5081965;28;45468;-72
2022/05/27 05:55:19;;;;;;;;;7.00;7.00;;;;;16.01;69.00;102022.34;5080651;28;46245;-71
2022/05/27 05:57:47;;;;;;;;;7.00;6.00;;;;;15.94;68.38;102028.56;5080614;28;45433;-71
2022/05/27 06:00:17;;;;;;;;;6.00;6.00;;;;;15.96;68.54;102026.53;5080777;27;45313;-71
2022/05/27 06:02:42;;;;;;;;;8.00;6.67;;;;;15.98;68.58;102024.56;5071568;27;45374;-71
2022/05/27 06:05:09;;;;;;;;;6.00;6.00;;;;;15.98;68.51;102033.41;5077423;27;45526;-71
2022/05/27 06:07:34;;;;;;;;;6.33;6.00;;;;;15.96;68.61;102027.41;5080221;27;46210;-71
2022/05/27 06:10:00;;;;;;;;;8.00;8.00;;;;;15.95;68.97;102023.03;5081118;27;45398;-71
2022/05/27 06:12:27;;;;;;;;;10.00;9.33;;;;;15.96;68.88;102023.88;5081834;27;45342;-71
2022/05/27 06:14:53;;;;;;;;;9.33;8.67;;;;;15.99;68.82;102028.91;5081464;27;45414;-71
2022/05/27 06:17:20;;;;;;;;;10.67;9.00;;;;;15.92;68.86;102027.91;5081422;27;45331;-71
2022/05/27 06:19:46;;;;;;;;;15.00;12.00;;;;;15.92;68.99;102022.56;5081356;27;45301;-71
2022/05/27 06:22:12;;;;;;;;;10.33;10.00;;;;;15.93;69.20;102025.06;5081332;27;45270;-71
2022/05/27 06:24:37;;;;;;;;;13.67;10.67;;;;;15.97;69.12;102031.75;5081339;27;45574;-71
2022/05/27 06:27:06;;;;;;;;;10.33;10.33;;;;;15.93;69.01;102029.59;5079728;28;48157;-72
2022/05/27 06:35:01;;;;;;;;;13.67;13.00;;;;;16.03;69.42;102033.72;5080335;28;45309;-71
2022/05/27 06:37:27;;;;;;;;;9.33;9.33;;;;;16.05;69.74;102038.06;5080045;27;45950;-72
2022/05/27 06:39:52;;;;;;;;;12.00;12.00;;;;;15.97;69.21;102037.13;5072941;27;45544;-71
2022/05/27 06:42:18;;;;;;;;;10.33;10.33;;;;;16.00;68.89;102044.81;5077130;27;45561;-71
2022/05/27 06:44:43;;;;;;;;;13.33;13.33;;;;;15.97;68.89;102044.31;5080220;27;45460;-71
2022/05/27 06:47:13;;;;;;;;;11.00;11.00;;;;;15.98;69.29;102049.50;5080227;27;45485;-71
2022/05/27 06:49:40;;;;;;;;;11.33;11.33;;;;;15.98;69.38;102046.81;5074240;27;45513;-71
2022/05/27 06:52:07;;;;;;;;;11.00;11.00;;;;;15.97;69.59;102052.38;5092735;27;45673;-71
2022/05/27 06:54:34;;;;;;;;;11.00;10.67;;;;;15.98;69.53;102051.38;5072426;27;45346;-71
2022/05/27 06:57:00;;;;;;;;;13.67;13.67;;;;;15.97;69.61;102050.53;5073880;28;45343;-70
2022/05/27 06:59:25;;;;;;;;;16.33;16.00;;;;;16.00;69.24;102049.34;5080687;28;45347;-71
2022/05/27 07:01:50;;;;;;;;;13.33;12.33;;;;;15.96;69.54;102050.69;5081021;27;45320;-70
2022/05/27 07:04:19;;;;;;;;;16.33;16.33;;;;;15.94;69.34;102048.16;5084890;27;45577;-72
2022/05/27 07:06:46;;;;;;;;;17.00;15.67;;;;;15.94;69.58;102050.84;5087238;27;45320;-72
2022/05/27 07:09:21;;;;;;;;;13.00;13.00;;;;;15.92;69.69;102038.66;5080262;27;45492;-72
2022/05/27 07:11:49;;;;;;;;;15.00;14.33;;;;;15.97;70.21;102058.56;5079166;28;45391;-72
2022/05/27 07:14:15;;;;;;;;;15.00;15.00;;;;;16.00;70.20;102054.69;5079074;27;45480;-72
2022/05/27 07:16:42;;;;;;;;;18.00;16.00;;;;;15.93;69.93;102041.16;5080332;27;46190;-72
2022/05/27 07:19:08;;;;;;;;;16.67;15.67;;;;;16.08;70.23;102062.69;5079150;28;45374;-71
2022/05/27 07:21:41;;;;;;;;;15.67;15.33;;;;;16.06;70.14;102053.13;5080772;27;45337;-72
2022/05/27 07:24:09;;;;;;;;;18.00;17.33;;;;;16.18;70.60;102065.13;5078284;27;45307;-72
2022/05/27 07:26:35;;;;;;;;;19.67;19.33;;;;;16.25;69.75;102063.38;5078156;27;45438;-72
2022/05/27 07:29:01;;;;;;;;;19.67;19.67;;;;;16.23;69.73;102052.03;5078530;27;45468;-72
2022/05/27 07:31:27;;;;;;;;;21.33;20.00;;;;;16.27;69.69;102055.16;5079619;27;45606;-72
2022/05/27 07:33:52;;;;;;;;;20.67;20.33;;;;;16.35;69.76;102049.75;5079272;28;45357;-71
2022/05/27 07:36:17;;;;;;;;;21.33;21.33;;;;;16.41;69.56;102058.91;5079182;27;45279;-71
2022/05/27 07:38:43;;;;;;;;;21.33;21.33;;;;;16.40;69.59;102046.50;5079396;28;45295;-72
2022/05/27 07:41:08;;;;;;;;;23.00;21.33;;;;;16.51;69.62;102048.75;5080119;27;45220;-72
2022/05/27 07:43:34;;;;;;;;;22.00;21.00;;;;;16.61;69.45;102063.78;5080202;27;45468;-72
2022/05/27 07:46:00;;;;;;;;;21.00;21.00;;;;;16.58;69.55;102045.34;5080097;27;45268;-72
2022/05/27 07:48:26;;;;;;;;;26.00;23.67;;;;;16.63;68.76;102041.09;5080219;28;45282;-71
2022/05/27 07:50:51;;;;;;;;;23.33;20.67;;;;;16.71;68.32;102050.91;5080083;27;45291;-72
2022/05/27 07:53:18;;;;;;;;;23.00;21.33;;;;;16.72;68.72;102044.53;5079909;27;45374;-72
2022/05/27 07:55:44;;;;;;;;;21.33;19.67;;;;;16.76;69.03;102056.56;5079811;27;45404;-71
2022/05/27 07:58:09;;;;;;;;;20.00;19.67;;;;;16.71;68.65;102040.19;5078532;27;45389;-71
2022/05/27 08:00:37;;;;;;;;;20.67;19.33;;;;;16.84;68.78;102061.00;5080149;27;45315;-72
2022/05/27 08:03:04;;;;;;;;;16.33;16.33;;;;;16.87;68.59;102051.75;5080073;27;45329;-72
2022/05/27 08:05:30;;;;;;;;;20.67;20.33;;;;;16.92;68.92;102054.72;5093988;27;46640;-72
2022/05/27 08:07:57;;;;;;;;;16.33;15.33;;;;;16.94;68.80;102055.34;5098360;27;45924;-72
2022/05/27 08:10:33;;;;;;;;;15.00;14.33;;;;;17.03;68.49;102064.19;5100304;27;45330;-72
2022/05/27 08:12:58;;;;;;;;;11.67;11.67;;;;;16.89;68.18;102042.50;5100054;27;45432;-72
2022/05/27 08:15:24;;;;;;;;;12.00;12.00;;;;;17.06;68.75;102055.72;5099989;27;45434;-72
2022/05/27 08:17:50;;;;;;;;;11.00;10.00;;;;;17.05;68.73;102062.13;5100111;27;45388;-72
2022/05/27 08:20:19;;;;;;;;;11.00;11.00;;;;;17.13;68.27;102061.25;5099625;27;45344;-71
2022/05/27 08:22:48;;;;;;;;;10.67;10.67;;;;;17.17;68.47;102062.53;5099856;27;45344;-72
2022/05/27 08:25:14;;;;;;;;;11.00;9.33;;;;;17.19;67.97;102059.66;5098700;27;47324;-72
2022/05/27 08:27:40;;;;;;;;;11.00;9.00;;;;;17.20;68.53;102053.25;5099857;27;45416;-72
2022/05/27 08:30:07;;;;;;;;;9.00;9.00;;;;;17.28;67.98;102054.00;5100098;27;45317;-72
2022/05/27 08:32:32;;;;;;;;;8.00;7.00;;;;;17.39;67.95;102062.63;5099972;27;45541;-72
2022/05/27 08:38:01;;;;;;;;;8.00;8.00;;;;;17.47;67.73;102051.75;5099557;27;45297;-72
2022/05/27 08:40:52;;;;;;;;;7.67;7.00;;;;;17.55;67.59;102053.50;5098454;27;45432;-72
2022/05/27 08:44:01;;;;;;;;;8.67;8.67;;;;;17.60;67.36;102048.38;5093098;27;45443;-71
2022/05/27 08:46:38;;;;;;;;;7.00;7.00;;;;;17.62;67.37;102062.47;5072820;27;45449;-72
2022/05/27 08:49:12;;;;;;;;;9.00;8.00;;;;;17.54;67.00;102058.03;5078267;27;45361;-72
2022/05/27 08:51:50;;;;;;;;;9.00;7.67;;;;;17.59;67.53;102062.00;5058617;28;45331;-73
2022/05/27 08:54:42;;;;;;;;;9.33;9.00;;;;;17.60;67.31;102069.06;5058585;28;46104;-73
2022/05/27 09:00:14;;;;;;;;;7.67;7.67;;;;;17.64;67.61;102068.50;5058363;28;45229;-74
2022/05/27 09:02:46;;;;;;;;;11.00;11.00;;;;;17.64;67.11;102067.66;5078692;27;45411;-73
2022/05/27 09:05:33;;;;;;;;;7.00;7.00;;;;;17.65;67.52;102070.16;5090396;27;45304;-74
2022/05/27 09:08:08;;;;;;;;;10.67;10.33;;;;;17.69;67.15;102078.66;5098614;27;45248;-74
2022/05/27 09:11:02;;;;;;;;;9.00;9.00;;;;;17.74;66.64;102064.66;5094006;27;45284;-73
2022/05/27 09:13:36;;;;;;;;;15.33;11.00;;;;;17.66;67.08;102069.13;5077449;28;45426;-73
2022/05/27 09:16:12;;;;;;;;;9.33;9.33;;;;;17.73;66.88;102071.91;5077384;28;46137;-72
2022/05/27 09:18:48;;;;;;;;;8.00;8.00;;;;;17.73;67.00;102077.28;5078693;27;45269;-74
2022/05/27 09:21:31;;;;;;;;;7.33;7.33;;;;;17.78;66.80;102077.53;5078783;27;45140;-73
2022/05/27 09:24:18;;;;;;;;;11.00;9.00;;;;;17.75;67.03;102075.22;5072177;27;45381;-73
2022/05/27 09:26:52;;;;;;;;;11.33;10.33;;;;;17.78;66.71;102061.38;5076452;28;45342;-73
2022/05/27 09:29:37;;;;;;;;;11.00;11.00;;;;;17.87;66.59;102072.84;5077950;27;45337;-75
2022/05/27 09:32:09;;;;;;;;;8.33;8.33;;;;;17.93;67.16;102071.28;5058188;28;45272;-75
2022/05/27 09:34:37;;;;;;;;;11.33;10.00;;;;;18.04;67.00;102069.91;5061418;28;45462;-73
2022/05/27 09:37:07;;;;;;;;;11.67;10.33;;;;;18.10;66.41;102060.25;5061300;28;45872;-74
2022/05/27 09:39:32;;;;;;;;;11.33;10.00;;;;;18.21;66.81;102064.31;5074818;28;46068;-74
2022/05/27 09:42:13;;;;;;;;;13.67;12.67;;;;;18.29;66.45;102070.38;5081403;27;45503;-75
2022/05/27 09:44:49;;;;;;;;;12.00;11.00;;;;;18.34;66.14;102066.28;5081919;28;45330;-75
2022/05/27 09:47:17;;;;;;;;;14.67;12.33;;;;;18.32;65.99;102054.91;5073506;27;45427;-74
2022/05/27 09:49:59;;;;;;;;;12.00;12.00;;;;;18.34;65.30;102061.75;5068411;28;48090;-74
2022/05/27 09:52:29;;;;;;;;;10.67;10.67;;;;;18.34;66.11;102068.97;5061655;28;45333;-74
2022/05/27 09:55:01;;;;;;;;;11.33;10.00;;;;;18.37;66.72;102064.03;5081791;27;45457;-74
2022/05/27 09:57:30;;;;;;;;;14.00;14.00;;;;;18.46;66.56;102070.13;5081093;27;45260;-74
2022/05/27 10:00:04;;;;;;;;;14.67;13.67;;;;;18.57;66.32;102066.06;5080875;28;45416;-74
2022/05/27 10:02:33;;;;;;;;;14.33;12.67;;;;;18.63;65.48;102067.97;5080758;27;45357;-75
2022/05/27 10:05:14;;;;;;;;;13.00;12.67;;;;;18.57;65.85;102055.28;5091794;27;45296;-76
2022/05/27 10:07:57;;;;;;;;;12.00;12.00;;;;;18.69;66.04;102055.59;5101690;27;45422;-77
2022/05/27 10:10:34;;;;;;;;;15.33;13.33;;;;;18.80;65.76;102060.41;5102020;27;45330;-74
2022/05/27 10:13:30;;;;;;;;;14.67;13.67;;;;;18.98;65.16;102061.78;5081917;27;45296;-74
2022/05/27 10:16:14;;;;;;;;;13.33;11.67;;;;;19.12;64.43;102059.16;5061299;28;45320;-73
2022/05/27 10:18:42;;;;;;;;;12.00;11.67;;;;;19.16;64.74;102055.06;5060999;28;45528;-74
2022/05/27 10:21:18;;;;;;;;;14.33;13.00;;;;;19.19;64.96;102054.66;5061190;28;45334;-74
2022/05/27 10:23:46;;;;;;;;;12.00;11.67;;;;;19.24;64.63;102051.38;5060942;28;45329;-74
2022/05/27 10:26:18;;;;;;;;;10.67;10.67;;;;;19.32;65.00;102051.19;5076780;28;45240;-74
2022/05/27 10:28:43;;;;;;;;;9.33;9.33;;;;;19.29;64.49;102036.25;5060945;28;45336;-73
2022/05/27 10:31:16;;;;;;;;;6.33;6.33;;;;;19.39;64.69;102040.41;5060930;28;45360;-73
2022/05/27 10:33:44;;;;;;;;;7.00;7.00;;;;;19.41;64.80;102038.34;5059641;28;46012;-73
2022/05/27 10:36:54;;;;;;;;;10.00;9.67;;;;;19.50;64.78;102039.84;5065404;28;45186;-73
2022/05/27 10:39:29;;;;;;;;;12.67;12.67;;;;;19.60;64.82;102031.34;5080597;27;45534;-74
2022/05/27 10:42:09;;;;;;;;;10.33;10.33;;;;;19.79;64.69;102034.31;5076062;27;45492;-73
2022/05/27 10:44:57;;;;;;;;;10.00;9.67;;;;;19.99;64.23;102022.72;5060327;28;45155;-74
2022/05/27 10:47:40;;;;;;;;;10.33;10.33;;;;;20.29;63.44;102033.94;5059521;28;45349;-73
2022/05/27 10:50:14;;;;;;;;;10.67;9.33;;;;;20.40;62.44;102032.50;5060770;28;45276;-73
2022/05/27 10:53:17;;;;;;;;;11.00;10.67;;;;;20.49;61.84;102041.22;5060405;28;45365;-76
2022/05/27 10:55:42;;;;;;;;;10.00;10.00;;;;;20.62;62.57;102045.75;5059039;28;45398;-74
2022/05/27 11:04:25;;;;;;;;;10.67;10.00;;;;;21.15;61.21;102041.28;5072282;27;45748;-73
2022/05/27 11:06:57;;;;;;;;;8.67;7.67;;;;;21.17;60.97;102043.78;5064779;28;45608;-73
2022/05/27 11:09:33;;;;;;;;;8.67;8.67;;;;;21.16;61.12;102031.31;5066305;28;45456;-72
2022/05/27 11:15:48;;;;;;;;;7.00;7.00;;;;;20.97;60.94;102039.28;5066599;27;45364;-73
2022/05/27 11:18:16;;;;;;;;;7.67;7.00;;;;;20.90;60.68;102043.88;5073922;27;45270;-73
2022/05/27 11:20:44;;;;;;;;;7.33;7.33;;;;;20.83;61.48;102043.84;5070389;27;45645;-75
2022/05/27 11:24:04;;;;;;;;;9.00;8.00;;;;;20.77;61.80;102042.81;5075691;27;46514;-73
2022/05/27 11:26:40;;;;;;;;;8.67;7.67;;;;;20.68;61.13;102042.22;5031767;27;46426;-73
2022/05/27 11:29:30;;;;;;;;;9.67;9.67;;;;;20.65;61.59;102036.44;5064604;27;45335;-73
2022/05/27 11:32:10;;;;;;;;;8.00;7.00;;;;;20.60;61.71;102034.34;5073970;28;45482;-73
2022/05/27 11:34:59;;;;;;;;;7.67;7.00;;;;;20.54;62.30;102025.22;5079667;27;45533;-73
2022/05/27 11:38:02;;;;;;;;;8.67;8.67;;;;;20.44;61.69;102024.78;5080028;27;46403;-74
2022/05/27 11:41:14;;;;;;;;;6.67;5.67;;;;;20.38;61.77;102026.47;5079546;27;45660;-72
2022/05/27 11:43:52;;;;;;;;;6.67;6.33;;;;;20.16;62.27;102009.66;5077790;28;45421;-72
2022/05/27 11:46:23;;;;;;;;;8.67;7.00;;;;;20.19;62.38;102025.44;5079710;28;45309;-72
2022/05/27 11:49:02;;;;;;;;;9.67;9.67;;;;;20.04;62.22;102013.00;5078612;28;47107;-72
2022/05/27 11:52:05;;;;;;;;;7.00;7.00;;;;;20.03;62.78;102016.72;5079862;28;45416;-72
2022/05/27 11:55:01;;;;;;;;;8.33;8.00;;;;;19.97;62.55;102014.84;5079608;27;45300;-72
2022/05/27 11:57:35;;;;;;;;;8.00;8.00;;;;;19.89;63.08;102007.78;5079573;27;45774;-72
2022/05/27 12:00:10;;;;;;;;;8.00;8.00;;;;;19.96;63.47;102017.75;5079652;27;45392;-72
2022/05/27 12:02:47;;;;;;;;;8.00;8.00;;;;;19.94;63.35;102005.25;5079049;27;45410;-72
2022/05/27 12:05:28;;;;;;;;;9.67;8.67;;;;;19.84;62.90;101995.94;5080117;27;45471;-72
2022/05/27 12:08:20;;;;;;;;;6.00;6.00;;;;;19.88;63.55;102019.59;5072061;27;46191;-72
2022/05/27 12:10:48;;;;;;;;;8.67;8.67;;;;;19.85;63.30;102011.91;5062913;28;47411;-72
2022/05/27 12:13:29;;;;;;;;;11.33;11.33;;;;;19.86;63.51;102010.03;5078042;28;46086;-72